createdAt,value
2023-05-10T00:03:36.024Z,14.79
2023-05-10T00:08:37.621Z,14.78
2023-05-10T00:13:39.183Z,14.81
2023-05-10T00:18:41.284Z,14.79
2023-05-10T00:23:42.801Z,14.75
2023-05-10T00:28:44.299Z,14.76
2023-05-10T00:33:45.865Z,14.77
2023-05-10T00:38:47.418Z,14.77
2023-05-10T00:43:49.014Z,14.73
2023-05-10T00:48:50.763Z,14.81
2023-05-10T00:53:52.634Z,14.78
2023-05-10T00:58:54.452Z,14.88
2023-05-10T01:03:56.746Z,14.78
2023-05-10T01:15:15.767Z,14.88
2023-05-10T01:20:17.751Z,14.87
2023-05-10T01:25:51.485Z,14.76
2023-05-10T01:31:30.642Z,14.83
2023-05-10T01:37:13.459Z,14.82
2023-05-10T01:42:24.327Z,14.80
2023-05-10T01:47:43.318Z,14.88
2023-05-10T01:52:50.956Z,14.88
2023-05-10T01:58:03.811Z,14.80
2023-05-10T02:03:08.265Z,14.75
2023-05-10T02:08:10.572Z,14.73
2023-05-10T02:13:13.506Z,14.71
2023-05-10T02:18:16.042Z,14.79
2023-05-10T02:23:18.503Z,14.84
2023-05-10T02:28:21.809Z,14.83
2023-05-10T02:33:24.569Z,14.76
2023-05-10T02:38:27.843Z,14.80
2023-05-10T02:43:31.181Z,14.79
2023-05-10T02:48:32.764Z,14.89
2023-05-10T02:53:36.815Z,14.95
2023-05-10T02:58:38.370Z,15.04
2023-05-10T03:03:39.892Z,15.00
2023-05-10T03:08:41.519Z,14.88
2023-05-10T03:14:22.128Z,14.89
2023-05-10T03:19:36.788Z,14.94
2023-05-10T03:24:41.210Z,15.00
2023-05-10T03:29:45.413Z,14.83
2023-05-10T03:34:48.306Z,14.86
2023-05-10T03:39:49.953Z,14.77
2023-05-10T03:44:52.093Z,14.82
2023-05-10T03:49:53.733Z,14.88
2023-05-10T03:54:55.406Z,14.82
2023-05-10T03:59:58.529Z,14.92
2023-05-10T04:05:00.124Z,14.92
2023-05-10T04:10:01.794Z,14.91
2023-05-10T04:15:03.546Z,14.95
2023-05-10T04:20:05.601Z,14.88
2023-05-10T04:25:07.710Z,14.80
2023-05-10T04:30:09.594Z,14.75
2023-05-10T04:35:11.161Z,14.72
2023-05-10T04:40:13.009Z,14.78
2023-05-10T04:45:14.521Z,14.90
2023-05-10T04:50:16.251Z,14.91
2023-05-10T04:55:17.993Z,15.12
2023-05-10T05:00:19.933Z,15.04
2023-05-10T05:05:21.486Z,15.16
2023-05-10T05:10:23.048Z,15.11
2023-05-10T05:15:24.565Z,14.96
2023-05-10T05:20:26.119Z,15.05
2023-05-10T05:25:27.628Z,15.17
2023-05-10T05:30:29.113Z,15.24
2023-05-10T05:35:30.607Z,15.14
2023-05-10T05:40:32.106Z,15.16
2023-05-10T05:45:33.625Z,15.20
2023-05-10T05:50:35.149Z,15.36
2023-05-10T05:55:36.668Z,15.22
2023-05-10T06:00:38.180Z,15.22
2023-05-10T06:05:39.837Z,15.39
2023-05-10T06:10:41.376Z,15.29
2023-05-10T06:15:43.000Z,15.22
2023-05-10T06:20:44.525Z,15.19
2023-05-10T06:25:46.131Z,15.43
2023-05-10T06:30:47.732Z,15.39
2023-05-10T06:35:49.285Z,15.47
2023-05-10T06:40:50.862Z,15.51
2023-05-10T06:45:52.390Z,15.27
2023-05-10T06:50:54.042Z,15.29
2023-05-10T06:55:55.689Z,15.12
2023-05-10T07:01:03.312Z,15.14
2023-05-10T07:06:05.418Z,15.10
2023-05-10T07:11:07.628Z,15.00
2023-05-10T07:16:09.168Z,15.22
2023-05-10T07:21:10.842Z,15.22
2023-05-10T07:26:12.469Z,14.83
2023-05-10T07:31:14.006Z,14.97
2023-05-10T07:36:15.541Z,14.93
2023-05-10T07:41:17.074Z,14.97
2023-05-10T07:46:18.566Z,15.13
2023-05-10T07:51:20.062Z,15.20
2023-05-10T07:56:30.247Z,15.73
2023-05-10T08:01:32.935Z,16.17
2023-05-10T08:06:34.525Z,16.39
2023-05-10T08:11:36.176Z,16.60
2023-05-10T08:16:37.742Z,16.54
2023-05-10T08:21:39.270Z,16.83
2023-05-10T08:26:40.847Z,16.93
2023-05-10T08:31:42.697Z,16.86
2023-05-10T08:36:44.341Z,16.77
2023-05-10T08:41:48.879Z,16.90
2023-05-10T08:46:54.563Z,16.29
2023-05-10T08:51:58.437Z,15.27
2023-05-10T08:57:00.208Z,14.85
2023-05-10T09:02:03.016Z,15.14
2023-05-10T09:07:05.077Z,15.28
2023-05-10T09:12:06.927Z,15.75
2023-05-10T09:17:08.731Z,15.75
2023-05-10T09:22:10.923Z,15.93
2023-05-10T09:27:12.442Z,16.25
2023-05-10T09:32:15.589Z,16.76
2023-05-10T09:37:17.096Z,17.22
2023-05-10T09:42:19.286Z,16.59
2023-05-10T09:47:20.884Z,15.75
2023-05-10T09:52:22.385Z,15.54
2023-05-10T09:57:25.355Z,15.99
2023-05-10T10:02:29.781Z,16.24
2023-05-10T10:07:31.550Z,16.32
2023-05-10T10:12:33.518Z,16.23
2023-05-10T10:17:37.481Z,17.20
2023-05-10T10:22:38.992Z,17.22
2023-05-10T10:27:52.596Z,17.59
2023-05-10T10:33:26.832Z,17.50
2023-05-10T10:38:55.983Z,18.34
2023-05-10T10:44:31.354Z,19.30
2023-05-10T10:50:03.581Z,18.79
2023-05-10T10:55:21.645Z,17.68
2023-05-10T11:00:27.451Z,18.06
2023-05-10T11:05:51.334Z,17.86
2023-05-10T11:11:01.733Z,18.51
2023-05-10T11:16:23.142Z,18.01
2023-05-10T11:21:24.786Z,18.81
2023-05-10T11:26:31.047Z,18.91
2023-05-10T11:31:32.668Z,19.54
2023-05-10T11:36:36.690Z,19.43
2023-05-10T11:41:38.235Z,19.54
2023-05-10T11:46:39.819Z,20.47
2023-05-10T11:51:41.353Z,19.95
2023-05-10T11:56:42.869Z,19.48
2023-05-10T12:01:44.410Z,20.35
2023-05-10T12:06:46.102Z,21.55
2023-05-10T12:11:47.600Z,23.05
2023-05-10T12:16:49.323Z,22.45
2023-05-10T12:21:50.896Z,22.80
2023-05-10T12:26:52.464Z,23.10
2023-05-10T12:31:56.192Z,22.44
2023-05-10T12:36:58.117Z,21.55
2023-05-10T12:41:59.639Z,22.11
2023-05-10T12:47:01.135Z,22.81
2023-05-10T12:52:02.751Z,22.75
2023-05-10T12:57:04.310Z,23.27
2023-05-10T13:02:05.968Z,23.94
2023-05-10T13:07:07.981Z,24.07
2023-05-10T13:12:10.213Z,23.66
2023-05-10T13:17:11.967Z,26.14
2023-05-10T13:22:13.598Z,23.43
2023-05-10T13:27:15.076Z,22.41
2023-05-10T13:32:16.586Z,24.65
2023-05-10T13:37:18.233Z,25.38
2023-05-10T13:42:19.748Z,24.51
2023-05-10T13:47:21.231Z,22.93
2023-05-10T13:52:22.727Z,24.12
2023-05-10T13:57:24.211Z,21.69
2023-05-10T14:02:25.893Z,20.90
2023-05-10T14:07:27.558Z,20.63
2023-05-10T14:12:29.161Z,20.88
2023-05-10T14:17:30.684Z,20.90
2023-05-10T14:22:32.187Z,20.97
2023-05-10T14:27:33.711Z,21.42
2023-05-10T14:32:35.276Z,20.95
2023-05-10T14:37:36.780Z,20.64
2023-05-10T14:42:38.276Z,19.49
2023-05-10T14:47:43.111Z,17.92
2023-05-10T14:52:45.340Z,17.16
2023-05-10T14:57:46.850Z,17.24
2023-05-10T15:02:48.421Z,18.12
2023-05-10T15:07:50.356Z,18.61
2023-05-10T15:12:51.945Z,18.36
2023-05-10T15:17:53.513Z,18.22
2023-05-10T15:22:55.050Z,18.02
2023-05-10T15:27:56.557Z,17.99
2023-05-10T15:32:58.094Z,18.08
2023-05-10T15:37:59.610Z,17.59
2023-05-10T15:43:01.127Z,17.55
2023-05-10T15:48:02.753Z,17.81
2023-05-10T15:53:04.320Z,18.18
2023-05-10T15:58:05.948Z,17.89
2023-05-10T16:03:08.024Z,17.62
2023-05-10T16:08:09.592Z,17.29
2023-05-10T16:13:11.160Z,16.97
2023-05-10T16:18:12.700Z,16.85
2023-05-10T16:23:14.405Z,16.44
2023-05-10T16:28:15.909Z,16.27
2023-05-10T16:33:17.409Z,16.26
2023-05-10T16:38:18.923Z,16.36
2023-05-10T16:43:20.418Z,16.62
2023-05-10T16:48:22.040Z,16.74
2023-05-10T16:53:23.523Z,16.64
2023-05-10T16:58:25.380Z,16.81
2023-05-10T17:03:26.952Z,17.15
2023-05-10T17:08:28.521Z,17.11
2023-05-10T17:13:30.915Z,17.33
2023-05-10T17:18:32.481Z,17.36
2023-05-10T17:23:34.126Z,17.42
2023-05-10T17:28:35.681Z,17.72
2023-05-10T17:33:37.215Z,17.26
2023-05-10T17:38:38.726Z,17.13
2023-05-10T17:43:40.277Z,17.07
2023-05-10T17:48:41.774Z,16.74
2023-05-10T17:53:43.252Z,16.78
2023-05-10T17:58:44.838Z,16.77
2023-05-10T18:03:47.859Z,16.79
2023-05-10T18:08:49.542Z,16.73
2023-05-10T18:13:51.078Z,16.80
2023-05-10T18:18:52.679Z,16.86
2023-05-10T18:23:54.173Z,16.55
2023-05-10T18:28:55.702Z,16.41
2023-05-10T18:33:57.228Z,16.38
2023-05-10T18:38:59.100Z,16.29
2023-05-10T18:44:00.606Z,16.39
2023-05-10T18:49:02.730Z,16.23
2023-05-10T18:54:04.317Z,15.84
2023-05-10T18:59:06.035Z,15.25
2023-05-10T19:04:07.722Z,14.92
2023-05-10T19:09:09.482Z,14.55
2023-05-10T19:14:11.078Z,14.55
2023-05-10T19:19:14.271Z,14.53
2023-05-10T19:24:15.812Z,14.55
2023-05-10T19:29:17.458Z,14.60
2023-05-10T19:34:19.648Z,14.54
2023-05-10T19:39:21.149Z,14.61
2023-05-10T19:44:24.611Z,14.68
2023-05-10T19:49:26.300Z,14.70
2023-05-10T19:54:27.927Z,14.79
2023-05-10T19:59:29.464Z,14.81
2023-05-10T20:04:30.964Z,14.87
2023-05-10T20:09:32.556Z,14.90
2023-05-10T20:14:34.076Z,14.98
2023-05-10T20:19:35.574Z,14.96
2023-05-10T20:24:37.080Z,14.80
2023-05-10T20:29:38.655Z,14.80
2023-05-10T20:34:40.164Z,14.78
2023-05-10T20:39:41.660Z,14.78
2023-05-10T20:44:43.203Z,14.81
2023-05-10T20:49:44.769Z,14.73
2023-05-10T20:54:46.305Z,14.68
2023-05-10T20:59:49.611Z,14.68
2023-05-10T21:04:51.169Z,14.63
2023-05-10T21:09:52.866Z,14.58
2023-05-10T21:14:54.436Z,14.54
2023-05-10T21:19:55.931Z,14.53
2023-05-10T21:24:57.455Z,14.48
2023-05-10T21:29:59.008Z,14.45
2023-05-10T21:35:00.503Z,14.52
2023-05-10T21:40:02.480Z,14.59
2023-05-10T21:45:04.508Z,14.58
2023-05-10T21:50:06.685Z,14.60
2023-05-10T21:55:08.759Z,14.59
2023-05-10T22:00:11.158Z,14.58
2023-05-10T22:05:14.112Z,14.58
2023-05-10T22:10:15.835Z,14.56
2023-05-10T22:15:17.502Z,14.64
2023-05-10T22:20:19.378Z,14.75
2023-05-10T22:25:21.076Z,14.67
2023-05-10T22:30:22.630Z,14.52
2023-05-10T22:35:24.167Z,14.48
2023-05-10T22:40:25.746Z,14.56
2023-05-10T22:45:27.540Z,14.64
2023-05-10T22:50:30.047Z,14.54
2023-05-10T22:55:31.650Z,14.39
2023-05-10T23:00:33.690Z,14.15
2023-05-10T23:05:35.218Z,14.08
2023-05-10T23:10:36.844Z,13.83
2023-05-10T23:15:38.365Z,13.43
2023-05-10T23:20:42.962Z,13.27
2023-05-10T23:25:44.450Z,13.11
2023-05-10T23:30:45.983Z,13.10
2023-05-10T23:35:47.488Z,12.99
2023-05-10T23:40:49.971Z,13.06
2023-05-10T23:45:56.120Z,13.05
2023-05-10T23:50:57.712Z,13.13
2023-05-10T23:55:59.240Z,12.97
